Time,TemperatureF,DewpointF,PressureIn,WindDirection,WindDirectionDegrees,WindSpeedMPH,WindSpeedGustMPH,Humidity,HourlyPrecipIn,Conditions,Clouds,dailyrainin,SoftwareType,DateUTC
2013-02-06 00:02:00,41.0,38.0,29.96,North,5,0.0,0.0,88,0.00,,,0.00,,2013-02-06 05:02:00,
2013-02-06 00:12:00,41.0,38.0,29.96,North,5,0.0,0.0,88,0.00,,,0.00,,2013-02-06 05:12:00,
2013-02-06 00:22:00,40.0,37.0,29.96,North,5,0.0,0.0,89,0.00,,,0.00,,2013-02-06 05:22:00,
2013-02-06 00:32:00,40.0,37.0,29.96,North,5,0.0,0.0,90,0.00,,,0.00,,2013-02-06 05:32:00,
2013-02-06 00:42:00,40.0,37.0,29.96,North,5,0.0,0.0,90,0.00,,,0.00,,2013-02-06 05:42:00,
2013-02-06 00:53:00,39.0,36.0,29.96,North,5,0.0,0.0,90,0.00,,,0.00,,2013-02-06 05:53:00,
2013-02-06 01:01:00,39.0,36.0,29.96,North,5,0.0,0.0,90,0.00,,,0.00,,2013-02-06 06:01:00,
2013-02-06 01:11:00,39.0,36.0,29.96,North,5,0.0,0.0,90,0.00,,,0.00,,2013-02-06 06:11:00,
2013-02-06 01:22:00,38.0,35.0,29.96,North,5,0.0,0.0,90,0.00,,,0.00,,2013-02-06 06:22:00,
2013-02-06 01:32:00,38.0,35.0,29.96,North,5,0.0,0.0,90,0.00,,,0.00,,2013-02-06 06:32:00,
2013-02-06 01:42:00,38.0,35.0,29.96,North,5,0.0,0.0,90,0.00,,,0.00,,2013-02-06 06:42:00,
2013-02-06 01:51:00,38.0,36.0,29.97,North,5,0.0,0.0,91,0.00,,,0.00,,2013-02-06 06:51:00,
2013-02-06 02:02:00,38.0,36.0,29.97,North,5,0.0,0.0,92,0.00,,,0.00,,2013-02-06 07:02:00,
2013-02-06 02:11:00,38.0,36.0,29.97,North,5,0.0,0.0,92,0.00,,,0.00,,2013-02-06 07:11:00,
2013-02-06 02:22:00,38.0,36.0,29.97,North,5,0.0,0.0,92,0.00,,,0.00,,2013-02-06 07:22:00,
2013-02-06 02:32:00,37.0,35.0,29.97,North,5,0.0,0.0,93,0.00,,,0.00,,2013-02-06 07:32:00,
2013-02-06 02:42:00,37.0,35.0,29.97,North,5,0.0,0.0,93,0.00,,,0.00,,2013-02-06 07:42:00,
2013-02-06 02:52:00,37.0,35.0,29.97,North,5,0.0,0.0,93,0.00,,,0.00,,2013-02-06 07:52:00,
2013-02-06 03:01:00,37.0,35.0,29.97,North,5,0.0,0.0,94,0.00,,,0.00,,2013-02-06 08:01:00,
2013-02-06 03:11:00,37.0,35.0,29.97,North,5,0.0,0.0,94,0.00,,,0.00,,2013-02-06 08:11:00,
2013-02-06 03:21:00,37.0,35.0,29.97,North,5,0.0,0.0,94,0.00,,,0.00,,2013-02-06 08:21:00,
2013-02-06 03:32:00,37.0,35.0,29.97,North,5,0.0,0.0,94,0.00,,,0.00,,2013-02-06 08:32:00,
2013-02-06 03:42:00,37.0,35.0,29.97,North,5,0.0,0.0,94,0.00,,,0.00,,2013-02-06 08:42:00,
2013-02-06 03:53:00,37.0,35.0,29.97,North,5,0.0,0.0,94,0.00,,,0.00,,2013-02-06 08:53:00,
2013-02-06 04:02:00,37.0,35.0,29.97,North,5,0.0,0.0,94,0.00,,,0.00,,2013-02-06 09:02:00,
2013-02-06 04:11:00,37.0,35.0,29.97,North,5,0.0,0.0,94,0.00,,,0.00,,2013-02-06 09:11:00,
2013-02-06 04:22:00,37.0,36.0,29.98,North,5,0.0,0.0,95,0.00,,,0.00,,2013-02-06 09:22:00,
2013-02-06 04:32:00,37.0,35.0,29.98,North,5,0.0,0.0,94,0.00,,,0.00,,2013-02-06 09:32:00,
2013-02-06 04:42:00,37.0,35.0,29.98,North,5,0.0,0.0,94,0.00,,,0.00,,2013-02-06 09:42:00,
2013-02-06 04:52:00,37.0,35.0,29.98,North,5,0.0,0.0,94,0.00,,,0.00,,2013-02-06 09:52:00,
2013-02-06 05:01:00,37.0,35.0,29.99,North,5,0.0,0.0,94,0.00,,,0.00,,2013-02-06 10:01:00,
2013-02-06 05:11:00,37.0,35.0,29.99,North,5,0.0,0.0,94,0.00,,,0.00,,2013-02-06 10:11:00,
2013-02-06 05:22:00,36.0,34.0,30.00,North,5,0.0,0.0,94,0.00,,,0.00,,2013-02-06 10:22:00,
2013-02-06 05:32:00,36.0,34.0,30.01,North,5,0.0,0.0,94,0.00,,,0.00,,2013-02-06 10:32:00,
2013-02-06 05:42:00,36.0,34.0,30.01,North,5,0.0,0.0,94,0.00,,,0.00,,2013-02-06 10:42:00,
2013-02-06 05:52:00,36.0,34.0,30.01,North,5,0.0,0.0,94,0.00,,,0.00,,2013-02-06 10:52:00,
2013-02-06 06:01:00,35.0,33.0,30.02,North,5,0.0,0.0,94,0.00,,,0.00,,2013-02-06 11:01:00,
2013-02-06 06:11:00,35.0,33.0,30.02,North,5,0.0,0.0,94,0.00,,,0.00,,2013-02-06 11:11:00,
2013-02-06 06:22:00,35.0,33.0,30.02,North,5,0.0,0.0,94,0.00,,,0.00,,2013-02-06 11:22:00,
2013-02-06 06:32:00,35.0,33.0,30.03,North,5,0.0,0.0,94,0.00,,,0.00,,2013-02-06 11:32:00,
2013-02-06 06:42:00,35.0,33.0,30.03,North,5,0.0,0.0,94,0.00,,,0.00,,2013-02-06 11:42:00,
2013-02-06 06:52:00,35.0,33.0,30.04,North,5,0.0,0.0,94,0.00,,,0.00,,2013-02-06 11:52:00,
2013-02-06 07:02:00,34.0,32.0,30.05,North,5,0.0,2.0,94,0.00,,,0.00,,2013-02-06 12:02:00,
2013-02-06 07:12:00,34.0,32.0,30.05,North,5,0.0,2.0,94,0.00,,,0.00,,2013-02-06 12:12:00,
2013-02-06 07:22:00,34.0,32.0,30.05,North,5,0.0,0.0,94,0.00,,,0.00,,2013-02-06 12:22:00,
2013-02-06 07:32:00,34.0,32.0,30.07,North,5,0.0,0.0,94,0.00,,,0.00,,2013-02-06 12:32:00,
2013-02-06 07:42:00,34.0,32.0,30.07,North,5,0.0,0.0,94,0.00,,,0.00,,2013-02-06 12:42:00,
2013-02-06 07:52:00,33.0,31.0,30.08,North,5,0.0,0.0,94,0.00,,,0.00,,2013-02-06 12:52:00,
2013-02-06 08:02:00,33.0,31.0,30.08,North,5,0.0,0.0,94,0.00,,,0.00,,2013-02-06 13:02:00,
2013-02-06 08:12:00,33.0,31.0,30.08,North,5,0.0,0.0,94,0.00,,,0.00,,2013-02-06 13:12:00,
2013-02-06 08:22:00,33.0,31.0,30.09,North,5,0.0,1.0,94,0.00,,,0.00,,2013-02-06 13:22:00,
2013-02-06 08:32:00,33.0,32.0,30.09,North,5,0.0,2.0,95,0.00,,,0.00,,2013-02-06 13:32:00,
2013-02-06 08:42:00,33.0,32.0,30.09,North,5,0.0,2.0,95,0.00,,,0.00,,2013-02-06 13:42:00,
2013-02-06 08:52:00,33.0,32.0,30.09,North,5,0.0,0.0,95,0.00,,,0.00,,2013-02-06 13:52:00,
2013-02-06 09:02:00,34.0,33.0,30.10,North,5,0.0,0.0,96,0.00,,,0.00,,2013-02-06 14:02:00,
2013-02-06 09:22:00,36.0,35.0,30.10,North,5,0.0,1.0,96,0.00,,,0.00,,2013-02-06 14:22:00,
2013-02-06 09:32:00,39.0,38.0,30.11,North,5,1.0,3.0,97,0.00,,,0.00,,2013-02-06 14:32:00,
2013-02-06 09:42:00,39.0,38.0,30.11,North,5,1.0,3.0,97,0.00,,,0.00,,2013-02-06 14:42:00,
2013-02-06 09:52:00,41.0,40.0,30.11,North,5,0.0,3.0,97,0.00,,,0.00,,2013-02-06 14:52:00,
2013-02-06 10:02:00,44.0,43.0,30.11,North,5,0.0,3.0,96,0.00,,,0.00,,2013-02-06 15:02:00,
2013-02-06 10:21:00,47.0,43.0,30.11,North,5,0.0,2.0,85,0.00,,,0.00,,2013-02-06 15:21:00,
2013-02-06 10:32:00,51.0,38.0,30.11,North,5,1.0,4.0,62,0.00,,,0.00,,2013-02-06 15:32:00,
2013-02-06 10:42:00,51.0,38.0,30.11,North,5,1.0,4.0,62,0.00,,,0.00,,2013-02-06 15:42:00,
2013-02-06 10:52:00,53.0,37.0,30.11,North,5,0.0,4.0,54,0.00,,,0.00,,2013-02-06 15:52:00,
2013-02-06 11:01:00,56.0,37.0,30.12,North,5,2.0,4.0,49,0.00,,,0.00,,2013-02-06 16:01:00,
2013-02-06 11:11:00,56.0,37.0,30.12,North,5,2.0,4.0,49,0.00,,,0.00,,2013-02-06 16:11:00,
2013-02-06 11:22:00,56.0,36.0,30.12,North,5,1.0,6.0,46,0.00,,,0.00,,2013-02-06 16:22:00,
2013-02-06 11:32:00,56.0,35.0,30.13,North,5,1.0,4.0,45,0.00,,,0.00,,2013-02-06 16:32:00,
2013-02-06 11:42:00,56.0,35.0,30.13,North,5,1.0,4.0,45,0.00,,,0.00,,2013-02-06 16:42:00,
2013-02-06 11:52:00,57.0,35.0,30.13,North,5,0.0,4.0,43,0.00,,,0.00,,2013-02-06 16:52:00,
2013-02-06 12:02:00,58.0,34.0,30.13,North,5,2.0,5.0,40,0.00,,,0.00,,2013-02-06 17:02:00,
2013-02-06 12:12:00,58.0,34.0,30.13,North,5,2.0,5.0,40,0.00,,,0.00,,2013-02-06 17:12:00,
2013-02-06 12:22:00,58.0,34.0,30.12,North,5,3.0,5.0,40,0.00,,,0.00,,2013-02-06 17:22:00,
2013-02-06 12:32:00,59.0,34.0,30.11,North,5,2.0,4.0,39,0.00,,,0.00,,2013-02-06 17:32:00,
2013-02-06 12:42:00,59.0,34.0,30.11,North,5,2.0,4.0,39,0.00,,,0.00,,2013-02-06 17:42:00,
2013-02-06 12:52:00,60.0,32.0,30.11,North,5,2.0,7.0,35,0.00,,,0.00,,2013-02-06 17:52:00,
2013-02-06 13:02:00,61.0,32.0,30.10,North,5,1.0,6.0,34,0.00,,,0.00,,2013-02-06 18:02:00,
2013-02-06 13:12:00,61.0,32.0,30.10,North,5,1.0,6.0,34,0.00,,,0.00,,2013-02-06 18:12:00,
2013-02-06 13:23:00,61.0,33.0,30.10,North,5,0.0,4.0,35,0.00,,,0.00,,2013-02-06 18:23:00,
2013-02-06 13:33:00,62.0,32.0,30.09,North,5,2.0,7.0,32,0.00,,,0.00,,2013-02-06 18:33:00,
2013-02-06 13:42:00,62.0,32.0,30.09,North,5,2.0,7.0,32,0.00,,,0.00,,2013-02-06 18:42:00,
2013-02-06 13:52:00,62.0,30.0,30.08,North,5,1.0,5.0,30,0.00,,,0.00,,2013-02-06 18:52:00,
2013-02-06 14:02:00,62.0,32.0,30.08,North,5,1.0,6.0,32,0.00,,,0.00,,2013-02-06 19:02:00,
2013-02-06 14:11:00,62.0,32.0,30.08,North,5,1.0,6.0,32,0.00,,,0.00,,2013-02-06 19:11:00,
2013-02-06 14:22:00,63.0,29.0,30.08,North,5,2.0,6.0,28,0.00,,,0.00,,2013-02-06 19:22:00,
2013-02-06 14:32:00,62.0,30.0,30.08,North,5,1.0,6.0,30,0.00,,,0.00,,2013-02-06 19:32:00,
2013-02-06 14:42:00,62.0,30.0,30.08,North,5,1.0,6.0,30,0.00,,,0.00,,2013-02-06 19:42:00,
2013-02-06 14:52:00,64.0,30.0,30.07,North,5,4.0,7.0,28,0.00,,,0.00,,2013-02-06 19:52:00,
2013-02-06 15:01:00,63.0,29.0,30.07,North,5,1.0,7.0,27,0.00,,,0.00,,2013-02-06 20:01:00,
2013-02-06 15:11:00,63.0,29.0,30.07,North,5,1.0,7.0,27,0.00,,,0.00,,2013-02-06 20:11:00,
2013-02-06 15:21:00,64.0,30.0,30.07,North,5,2.0,6.0,28,0.00,,,0.00,,2013-02-06 20:21:00,
2013-02-06 15:32:00,64.0,29.0,30.06,North,5,1.0,6.0,27,0.00,,,0.00,,2013-02-06 20:32:00,
2013-02-06 15:42:00,64.0,29.0,30.06,North,5,1.0,6.0,27,0.00,,,0.00,,2013-02-06 20:42:00,
2013-02-06 15:52:00,65.0,30.0,30.06,North,5,5.0,8.0,27,0.00,,,0.00,,2013-02-06 20:52:00,
2013-02-06 16:02:00,65.0,29.0,30.06,North,5,2.0,6.0,26,0.00,,,0.00,,2013-02-06 21:02:00,
2013-02-06 16:11:00,65.0,29.0,30.06,North,5,2.0,6.0,26,0.00,,,0.00,,2013-02-06 21:11:00,
2013-02-06 16:21:00,64.0,29.0,30.06,North,5,2.0,5.0,27,0.00,,,0.00,,2013-02-06 21:21:00,
2013-02-06 16:32:00,64.0,31.0,30.06,North,5,0.0,5.0,29,0.00,,,0.00,,2013-02-06 21:32:00,
2013-02-06 16:42:00,64.0,31.0,30.06,North,5,0.0,5.0,29,0.00,,,0.00,,2013-02-06 21:42:00,
2013-02-06 16:51:00,64.0,29.0,30.06,North,5,1.0,5.0,27,0.00,,,0.00,,2013-02-06 21:51:00,
2013-02-06 17:01:00,64.0,27.0,30.07,North,5,1.0,5.0,25,0.00,,,0.00,,2013-02-06 22:01:00,
2013-02-06 17:11:00,64.0,27.0,30.07,North,5,1.0,5.0,25,0.00,,,0.00,,2013-02-06 22:11:00,
2013-02-06 17:22:00,63.0,28.0,30.07,North,5,1.0,5.0,26,0.00,,,0.00,,2013-02-06 22:22:00,
2013-02-06 17:32:00,62.0,27.0,30.07,North,5,1.0,3.0,26,0.00,,,0.00,,2013-02-06 22:32:00,
2013-02-06 17:42:00,62.0,27.0,30.07,North,5,1.0,3.0,26,0.00,,,0.00,,2013-02-06 22:42:00,
2013-02-06 17:52:00,61.0,30.0,30.07,North,5,0.0,2.0,31,0.00,,,0.00,,2013-02-06 22:52:00,
2013-02-06 18:01:00,57.0,35.0,30.07,North,5,0.0,0.0,43,0.00,,,0.00,,2013-02-06 23:01:00,
2013-02-06 18:21:00,54.0,35.0,30.07,North,5,0.0,0.0,48,0.00,,,0.00,,2013-02-06 23:21:00,
2013-02-06 18:32:00,53.0,35.0,30.07,North,5,0.0,0.0,50,0.00,,,0.00,,2013-02-06 23:32:00,
2013-02-06 18:52:00,52.0,35.0,30.08,North,5,0.0,0.0,52,0.00,,,0.00,,2013-02-06 23:52:00,
2013-02-06 19:02:00,51.0,36.0,30.09,North,5,0.0,0.0,56,0.00,,,0.00,,2013-02-07 00:02:00,
2013-02-06 19:22:00,50.0,35.0,30.09,North,5,0.0,0.0,56,0.00,,,0.00,,2013-02-07 00:22:00,
2013-02-06 19:32:00,49.0,34.0,30.10,North,5,0.0,0.0,57,0.00,,,0.00,,2013-02-07 00:32:00,
2013-02-06 19:52:00,48.0,34.0,30.10,North,5,0.0,1.0,58,0.00,,,0.00,,2013-02-07 00:52:00,
2013-02-06 20:01:00,48.0,34.0,30.09,North,5,0.0,0.0,58,0.00,,,0.00,,2013-02-07 01:01:00,
2013-02-06 20:21:00,47.0,35.0,30.10,North,5,0.0,0.0,62,0.00,,,0.00,,2013-02-07 01:21:00,
2013-02-06 20:32:00,47.0,35.0,30.09,North,5,0.0,0.0,62,0.00,,,0.00,,2013-02-07 01:32:00,
2013-02-06 20:42:00,47.0,35.0,30.09,North,5,0.0,0.0,62,0.00,,,0.00,,2013-02-07 01:42:00,
2013-02-06 20:52:00,46.0,35.0,30.10,North,5,0.0,0.0,65,0.00,,,0.00,,2013-02-07 01:52:00,
2013-02-06 21:02:00,45.0,34.0,30.10,North,5,0.0,1.0,64,0.00,,,0.00,,2013-02-07 02:02:00,
2013-02-06 21:12:00,45.0,34.0,30.10,North,5,0.0,1.0,64,0.00,,,0.00,,2013-02-07 02:12:00,
2013-02-06 21:21:00,45.0,34.0,30.10,North,5,0.0,2.0,65,0.00,,,0.00,,2013-02-07 02:21:00,
2013-02-06 21:32:00,45.0,35.0,30.13,North,5,0.0,0.0,67,0.00,,,0.00,,2013-02-07 02:32:00,
2013-02-06 21:42:00,45.0,35.0,30.13,North,5,0.0,0.0,67,0.00,,,0.00,,2013-02-07 02:42:00,
2013-02-06 21:51:00,45.0,35.0,30.13,North,5,0.0,0.0,67,0.00,,,0.00,,2013-02-07 02:51:00,
2013-02-06 22:02:00,44.0,34.0,30.14,North,5,0.0,0.0,68,0.00,,,0.00,,2013-02-07 03:02:00,
2013-02-06 22:11:00,44.0,34.0,30.14,North,5,0.0,0.0,68,0.00,,,0.00,,2013-02-07 03:11:00,
2013-02-06 22:21:00,43.0,34.0,30.15,North,5,0.0,0.0,70,0.00,,,0.00,,2013-02-07 03:21:00,
2013-02-06 22:32:00,43.0,34.0,30.15,North,5,0.0,0.0,70,0.00,,,0.00,,2013-02-07 03:32:00,
2013-02-06 22:42:00,43.0,34.0,30.15,North,5,0.0,0.0,70,0.00,,,0.00,,2013-02-07 03:42:00,
2013-02-06 22:52:00,43.0,33.0,30.14,North,5,0.0,0.0,68,0.00,,,0.00,,2013-02-07 03:52:00,
2013-02-06 23:01:00,43.0,34.0,30.14,North,5,0.0,1.0,69,0.00,,,0.00,,2013-02-07 04:01:00,
2013-02-06 23:11:00,43.0,34.0,30.14,North,5,0.0,1.0,69,0.00,,,0.00,,2013-02-07 04:11:00,
2013-02-06 23:22:00,43.0,34.0,30.14,North,5,0.0,1.0,69,0.00,,,0.00,,2013-02-07 04:22:00,
2013-02-06 23:32:00,43.0,33.0,30.14,North,5,0.0,2.0,67,0.00,,,0.00,,2013-02-07 04:32:00,
2013-02-06 23:42:00,43.0,33.0,30.14,North,5,0.0,2.0,67,0.00,,,0.00,,2013-02-07 04:42:00,
2013-02-06 23:53:00,43.0,34.0,30.14,North,5,0.0,0.0,69,0.00,,,0.00,,2013-02-07 04:53:00,